METAR Data
IDs: Format: Raw Decoded Include TAF

Data at: 1534 UTC 21 Sep 2018

KBGR 211453Z 18013KT 10SM SCT040 BKN110 16/08 A3025 RMK AO2 SLP244 T01610078 58017
KBGR 211353Z 17012KT 10SM SCT040 BKN120 16/09 A3028 RMK AO2 SLP254 T01560094
KBGR 211253Z 19006KT 10SM FEW020 BKN038 14/11 A3031 RMK AO2 SLP262 T01440106
KBGR 211153Z 17005KT 10SM FEW006 BKN036 13/11 A3030 RMK AO2 SLP260 T01330111 10133 20100 56003
KBGR 211053Z 17004KT 10SM FEW005 BKN036 OVC200 12/11 A3031 RMK AO2 SLP262 T01170111
KBGR 211023Z 00000KT 9SM FEW006 OVC034 11/11 A3031 RMK AO2 T01110106
KBGR 210953Z COR 00000KT 10SM OVC032 11/11 A3030 RMK AO2 SLP260 T01110106
KBGR 210853Z 17003KT 10SM SCT029 11/11 A3031 RMK AO2 SLP263 T01110106 55000
KBGR 210851Z 18003KT 10SM SCT029 11/11 A3031 RMK AO2
KBGR 210753Z 14003KT 10SM OVC028 12/11 A3031 RMK AO2 SLP261 T01170106
KBGR 210653Z 00000KT 10SM BKN026 OVC045 12/11 A3031 RMK AO2 SLP263 T01170106
KBGR 210647Z 00000KT 10SM BKN026 OVC045 12/11 A3032 RMK AO2
KBGR 210553Z 19003KT 10SM SCT035 BKN048 12/10 A3032 RMK AO2 SLP265 T01170100 10144 20111 58003
KBGR 210453Z 16004KT 10SM BKN030 BKN036 OVC045 13/11 A3032 RMK AO2 SLP268 T01280111 401720089
KBGR 210353Z 18004KT 10SM OVC036 13/11 A3033 RMK AO2 SLP268 T01330111
KBGR 210253Z 19004KT 10SM FEW050 OVC065 13/11 A3032 RMK AO2 SLP267 BINOVC T01330111 51012
KBGR 210153Z 19004KT 10SM OVC045 14/11 A3032 RMK AO2 SLP265 BINOVC T01390106
KBGR 210053Z 19005KT 10SM BKN060 14/11 A3031 RMK AO2 SLP262 T01390106
KBGR 202353Z 19004KT 10SM OVC060 14/10 A3029 RMK AO2 SLP256 BINOVC T01440100 10172 20144 51012
KBGR 202253Z 22004KT 10SM OVC050 15/10 A3028 RMK AO2 SLP253 BINOVC T01500100
KBGR 202153Z 20004KT 10SM SCT060 BKN120 16/10 A3026 RMK AO2 SLP247 T01560100
KBGR 202053Z 19004KT 10SM FEW030 SCT060 OVC150 17/10 A3026 RMK AO2 SLP244 T01670100 58002
KBGR 201953Z 25006KT 10SM SCT030 BKN060 BKN150 17/09 A3026 RMK AO2 SLP247 T01720094
KBGR 201853Z 25004KT 10SM FEW028 BKN055 16/09 A3026 RMK AO2 SLP246 T01610094
KBGR 201753Z VRB03KT 10SM FEW025 SCT060 16/09 A3026 RMK AO2 SLP246 T01610094 10161 20094 58012
KBGR 201653Z 16003KT 10SM SCT015 SCT060 16/09 A3028 RMK AO2 SLP251 T01560089
KBGR 201553Z 17008KT 10SM SCT015 BKN055 14/09 A3029 RMK AO2 SLP255 T01390094
KBGR 201528Z 17005KT 10SM SCT015 BKN055 13/09 A3029 RMK AO2 T01330089
KBGR 201453Z 11006KT 10SM OVC011 13/09 A3030 RMK AO2 SLP258 BINOVC T01280094 50008
KBGR 201432Z 00000KT 10SM OVC010 12/09 A3032 RMK AO2 T01170089
KBGR 201353Z 00000KT 10SM OVC009 11/08 A3032 RMK AO2 SLP265 T01110083
KBGR 201253Z 00000KT 10SM OVC006 10/08 A3029 RMK AO2 SLP256 T01000083
KBGR 201153Z 07005KT 10SM OVC005 09/08 A3027 RMK AO2 SLP250 T00940083 10106 20089 53016
KBGR 201053Z 07007KT 10SM OVC005 09/08 A3025 RMK AO2 SLP241 T00890078 $
KBGR 200953Z 05007KT 10SM OVC008 09/08 A3023 RMK AO2 SLP235 T00940078 $
KBGR 200942Z 04007KT 10SM OVC009 09/08 A3022 RMK AO2 T00940078
KBGR 200918Z 01007KT 10SM BKN010 OVC060 09/08 A3022 RMK AO2 T00890078
KBGR 200853Z 01006KT 10SM SCT065 09/08 A3023 RMK AO2 SLP234 T00890078 53012
KBGR 200753Z 36007KT 10SM CLR 09/08 A3020 RMK AO2 SLP226 T00940078
KBGR 200653Z 01005KT 10SM SCT060 10/08 A3019 RMK AO2 SLP222 T01000083
KBGR 200553Z 01007KT 10SM BKN065 11/09 A3019 RMK AO2 SLP223 T01060094 10144 20106 53009
KBGR 200453Z 05006KT 10SM FEW016 12/09 A3017 RMK AO2 SLP217 T01170094 401610111
KBGR 200353Z 05009KT 10SM FEW017 OVC044 13/09 A3018 RMK AO2 SLP218 T01330094